Southeast Texas Regional Airport
KBPT : now visible

Airfield :











YOU CAN JOIN US ON...

 
LOGIN :

Register | Disclaimer

   EN    FR    IT 

 









Legend :    VFR   Marginal VFR   IFR   Intensive IFR   Very Intensive IFR
Visi :
Ceiling :
>= 8 km
>= 3000ft
5 to 8 km
1000 to 3000 ft
1500m to 5 km
500 to 1000 ft
800 to 1500m
200 to 500 ft
< 800m
< 200 ft
Symbols :   Thunderstorms  Fog  Heavy snow  Heavy precipitations  Wind > 20 kt






- Airport Elevation : 15 ft
- IATA code : BPT


KBPT - Southeast Texas Regional

CURRENT METAR :
  • 100253Z AUTO 18007KT 10SM CLR 27/25 A2994 RMK AO2 SLP137 T02670250 53002

EXPIRED METARs :
  • 100153Z 18006KT 10SM CLR 27/24 A2993 RMK AO2 SLP135 T02670244
  • 100053Z 19007KT 9SM CLR 29/25 A2993 RMK AO2 SLP135 T02890250

TAF KBPT
Valid from the 10 at 00:00 until the 11 at 00:00 UTC


092320Z 1000/1024 19010KT P6SM SCT030
FM100300 20005KT P6SM SKC
FM100900 VRB05KT P6SM SCT020 SCT250
TEMPO 1010/1014 SCT005 BKN020
FM101500 23009KT P6SM SCT030 SCT250
KZHU FIR / North America



MET'MAP, your aeronautical weather chart ! - Copyright ORBIFLY December 2007 - Disclaimer

ORBIFLY MET'MAP TEAM :

Programming & Development : Alexandra Zaïnal
Concept & original design : Baudouin d'Aumeries
Assistance for programming : Marc-Olivier Méhu
Technical & hardware support : Manuel Goepfert

Contact : metmap@orbifly.com




SOURCES & CREDITS :

   NOAA       Earth
Advisory